sensor_id;sensor_type;location;lat;lon;timestamp;temperature;humidity
31729;DHT22;18309;43.658;1.312;2023-04-25T00:00:11;15.40;99.90
31729;DHT22;18309;43.658;1.312;2023-04-25T00:02:38;15.40;99.90
31729;DHT22;18309;43.658;1.312;2023-04-25T00:05:04;15.40;99.90
31729;DHT22;18309;43.658;1.312;2023-04-25T00:07:30;15.40;99.90
31729;DHT22;18309;43.658;1.312;2023-04-25T00:09:56;15.40;99.90
31729;DHT22;18309;43.658;1.312;2023-04-25T00:12:22;15.50;99.90
31729;DHT22;18309;43.658;1.312;2023-04-25T00:14:48;15.40;99.90
31729;DHT22;18309;43.658;1.312;2023-04-25T00:17:15;15.50;99.90
31729;DHT22;18309;43.658;1.312;2023-04-25T00:19:42;15.40;99.90
31729;DHT22;18309;43.658;1.312;2023-04-25T00:22:10;15.40;99.90
31729;DHT22;18309;43.658;1.312;2023-04-25T00:24:36;15.40;99.90
31729;DHT22;18309;43.658;1.312;2023-04-25T00:27:01;15.40;99.90
31729;DHT22;18309;43.658;1.312;2023-04-25T00:29:27;15.40;99.90
31729;DHT22;18309;43.658;1.312;2023-04-25T00:31:53;15.40;99.90
31729;DHT22;18309;43.658;1.312;2023-04-25T00:34:18;15.40;99.90
31729;DHT22;18309;43.658;1.312;2023-04-25T00:36:44;15.40;99.90
31729;DHT22;18309;43.658;1.312;2023-04-25T00:39:10;15.40;99.90
31729;DHT22;18309;43.658;1.312;2023-04-25T00:41:37;15.40;99.90
31729;DHT22;18309;43.658;1.312;2023-04-25T00:44:04;15.40;99.90
31729;DHT22;18309;43.658;1.312;2023-04-25T00:46:32;15.40;99.90
31729;DHT22;18309;43.658;1.312;2023-04-25T00:48:59;15.40;99.90
31729;DHT22;18309;43.658;1.312;2023-04-25T00:51:25;15.40;99.90
31729;DHT22;18309;43.658;1.312;2023-04-25T00:53:52;15.40;99.90
31729;DHT22;18309;43.658;1.312;2023-04-25T00:56:18;15.40;99.90
31729;DHT22;18309;43.658;1.312;2023-04-25T00:58:44;15.40;99.90
31729;DHT22;18309;43.658;1.312;2023-04-25T01:01:10;15.40;99.90
31729;DHT22;18309;43.658;1.312;2023-04-25T01:03:38;15.40;99.90
31729;DHT22;18309;43.658;1.312;2023-04-25T01:06:09;15.40;99.90
31729;DHT22;18309;43.658;1.312;2023-04-25T01:08:36;15.40;99.90
31729;DHT22;18309;43.658;1.312;2023-04-25T01:11:02;15.40;99.90
31729;DHT22;18309;43.658;1.312;2023-04-25T01:13:28;15.30;99.90
31729;DHT22;18309;43.658;1.312;2023-04-25T01:15:54;15.40;99.90
31729;DHT22;18309;43.658;1.312;2023-04-25T01:18:20;15.40;99.90
31729;DHT22;18309;43.658;1.312;2023-04-25T01:20:46;15.40;99.90
31729;DHT22;18309;43.658;1.312;2023-04-25T01:23:16;15.40;99.90
31729;DHT22;18309;43.658;1.312;2023-04-25T01:25:42;15.40;99.90
31729;DHT22;18309;43.658;1.312;2023-04-25T01:28:07;15.40;99.90
31729;DHT22;18309;43.658;1.312;2023-04-25T01:30:34;15.40;99.90
31729;DHT22;18309;43.658;1.312;2023-04-25T01:33:01;15.40;99.90
31729;DHT22;18309;43.658;1.312;2023-04-25T01:35:28;15.30;99.90
31729;DHT22;18309;43.658;1.312;2023-04-25T01:37:53;15.40;99.90
31729;DHT22;18309;43.658;1.312;2023-04-25T01:40:20;15.40;99.90
31729;DHT22;18309;43.658;1.312;2023-04-25T01:42:46;15.40;99.90
31729;DHT22;18309;43.658;1.312;2023-04-25T01:45:12;15.30;99.90
31729;DHT22;18309;43.658;1.312;2023-04-25T01:47:39;15.40;99.90
31729;DHT22;18309;43.658;1.312;2023-04-25T01:50:07;15.30;99.90
31729;DHT22;18309;43.658;1.312;2023-04-25T01:52:33;15.30;99.90
31729;DHT22;18309;43.658;1.312;2023-04-25T01:55:01;15.30;99.90
31729;DHT22;18309;43.658;1.312;2023-04-25T01:57:27;15.30;99.90
31729;DHT22;18309;43.658;1.312;2023-04-25T01:59:59;15.30;99.90
31729;DHT22;18309;43.658;1.312;2023-04-25T02:02:25;15.30;99.90
31729;DHT22;18309;43.658;1.312;2023-04-25T02:04:51;15.30;99.90
31729;DHT22;18309;43.658;1.312;2023-04-25T02:07:17;15.30;99.90
31729;DHT22;18309;43.658;1.312;2023-04-25T02:09:43;15.30;99.90
31729;DHT22;18309;43.658;1.312;2023-04-25T02:12:10;15.30;99.90
31729;DHT22;18309;43.658;1.312;2023-04-25T02:14:36;15.30;99.90
31729;DHT22;18309;43.658;1.312;2023-04-25T02:17:02;15.30;99.90
31729;DHT22;18309;43.658;1.312;2023-04-25T02:19:28;15.30;99.90
31729;DHT22;18309;43.658;1.312;2023-04-25T02:21:53;15.30;99.90
31729;DHT22;18309;43.658;1.312;2023-04-25T02:24:20;15.30;99.90
31729;DHT22;18309;43.658;1.312;2023-04-25T02:26:45;15.30;99.90
31729;DHT22;18309;43.658;1.312;2023-04-25T02:29:12;15.30;99.90
31729;DHT22;18309;43.658;1.312;2023-04-25T02:31:38;15.30;99.90
31729;DHT22;18309;43.658;1.312;2023-04-25T02:34:04;15.30;99.90
31729;DHT22;18309;43.658;1.312;2023-04-25T02:36:30;15.30;99.90
31729;DHT22;18309;43.658;1.312;2023-04-25T02:38:59;15.30;99.90
31729;DHT22;18309;43.658;1.312;2023-04-25T02:41:25;15.30;99.90
31729;DHT22;18309;43.658;1.312;2023-04-25T02:43:51;15.30;99.90
31729;DHT22;18309;43.658;1.312;2023-04-25T02:46:17;15.30;99.90
31729;DHT22;18309;43.658;1.312;2023-04-25T02:48:42;15.30;99.90
31729;DHT22;18309;43.658;1.312;2023-04-25T02:51:09;15.30;99.90
31729;DHT22;18309;43.658;1.312;2023-04-25T02:53:34;15.30;99.90
31729;DHT22;18309;43.658;1.312;2023-04-25T02:56:00;15.30;99.90
31729;DHT22;18309;43.658;1.312;2023-04-25T02:58:26;15.30;99.90
31729;DHT22;18309;43.658;1.312;2023-04-25T03:00:52;15.30;99.90
31729;DHT22;18309;43.658;1.312;2023-04-25T03:03:17;15.30;99.90
31729;DHT22;18309;43.658;1.312;2023-04-25T03:05:46;15.30;99.90
31729;DHT22;18309;43.658;1.312;2023-04-25T03:08:12;15.30;99.90
31729;DHT22;18309;43.658;1.312;2023-04-25T03:10:38;15.20;99.90
31729;DHT22;18309;43.658;1.312;2023-04-25T03:13:04;15.20;99.90
31729;DHT22;18309;43.658;1.312;2023-04-25T03:15:30;15.30;99.90
31729;DHT22;18309;43.658;1.312;2023-04-25T03:17:56;15.20;99.90
31729;DHT22;18309;43.658;1.312;2023-04-25T03:20:22;15.20;99.90
31729;DHT22;18309;43.658;1.312;2023-04-25T03:22:48;15.20;99.90
31729;DHT22;18309;43.658;1.312;2023-04-25T03:25:13;15.20;99.90
31729;DHT22;18309;43.658;1.312;2023-04-25T03:27:39;15.20;99.90
31729;DHT22;18309;43.658;1.312;2023-04-25T03:30:05;15.20;99.90
31729;DHT22;18309;43.658;1.312;2023-04-25T03:32:32;15.20;99.90
31729;DHT22;18309;43.658;1.312;2023-04-25T03:34:58;15.20;99.90
31729;DHT22;18309;43.658;1.312;2023-04-25T03:37:23;15.20;99.90
31729;DHT22;18309;43.658;1.312;2023-04-25T03:39:49;15.20;99.90
31729;DHT22;18309;43.658;1.312;2023-04-25T03:42:14;15.20;99.90
31729;DHT22;18309;43.658;1.312;2023-04-25T03:44:40;15.20;99.90
31729;DHT22;18309;43.658;1.312;2023-04-25T03:47:06;15.20;99.90
31729;DHT22;18309;43.658;1.312;2023-04-25T03:49:32;15.20;99.90
31729;DHT22;18309;43.658;1.312;2023-04-25T03:51:58;15.20;99.90
31729;DHT22;18309;43.658;1.312;2023-04-25T03:54:25;15.20;99.90
31729;DHT22;18309;43.658;1.312;2023-04-25T03:56:51;15.20;99.90
31729;DHT22;18309;43.658;1.312;2023-04-25T03:59:16;15.20;99.90
31729;DHT22;18309;43.658;1.312;2023-04-25T04:01:42;15.20;99.90
31729;DHT22;18309;43.658;1.312;2023-04-25T04:04:08;15.20;99.90
31729;DHT22;18309;43.658;1.312;2023-04-25T04:06:33;15.20;99.90
31729;DHT22;18309;43.658;1.312;2023-04-25T04:08:59;15.20;99.90
31729;DHT22;18309;43.658;1.312;2023-04-25T04:11:25;15.20;99.90
31729;DHT22;18309;43.658;1.312;2023-04-25T04:13:51;15.20;99.90
31729;DHT22;18309;43.658;1.312;2023-04-25T04:16:17;15.20;99.90
31729;DHT22;18309;43.658;1.312;2023-04-25T04:18:42;15.20;99.90
31729;DHT22;18309;43.658;1.312;2023-04-25T04:21:08;15.20;99.90
31729;DHT22;18309;43.658;1.312;2023-04-25T04:23:34;15.20;99.90
31729;DHT22;18309;43.658;1.312;2023-04-25T04:26:00;15.10;99.90
31729;DHT22;18309;43.658;1.312;2023-04-25T04:28:26;15.20;99.90
31729;DHT22;18309;43.658;1.312;2023-04-25T04:30:52;15.20;99.90
31729;DHT22;18309;43.658;1.312;2023-04-25T04:33:18;15.20;99.90
31729;DHT22;18309;43.658;1.312;2023-04-25T04:35:46;15.10;99.90
31729;DHT22;18309;43.658;1.312;2023-04-25T04:38:12;15.10;99.90
31729;DHT22;18309;43.658;1.312;2023-04-25T04:40:41;15.10;99.90
31729;DHT22;18309;43.658;1.312;2023-04-25T04:43:08;15.10;99.90
31729;DHT22;18309;43.658;1.312;2023-04-25T04:45:37;15.20;99.90
31729;DHT22;18309;43.658;1.312;2023-04-25T04:48:06;15.10;99.90
31729;DHT22;18309;43.658;1.312;2023-04-25T04:50:32;15.20;99.90
31729;DHT22;18309;43.658;1.312;2023-04-25T04:52:58;15.10;99.90
31729;DHT22;18309;43.658;1.312;2023-04-25T04:55:23;15.10;99.90
31729;DHT22;18309;43.658;1.312;2023-04-25T04:57:49;15.10;99.90
31729;DHT22;18309;43.658;1.312;2023-04-25T05:00:15;15.20;99.90
31729;DHT22;18309;43.658;1.312;2023-04-25T05:02:41;15.10;99.90
31729;DHT22;18309;43.658;1.312;2023-04-25T05:05:07;15.10;99.90
31729;DHT22;18309;43.658;1.312;2023-04-25T05:07:33;15.10;99.90
31729;DHT22;18309;43.658;1.312;2023-04-25T05:09:59;15.10;99.90
31729;DHT22;18309;43.658;1.312;2023-04-25T05:12:25;15.10;99.90
31729;DHT22;18309;43.658;1.312;2023-04-25T05:14:51;15.10;99.90
31729;DHT22;18309;43.658;1.312;2023-04-25T05:17:17;15.10;99.90
31729;DHT22;18309;43.658;1.312;2023-04-25T05:19:43;15.10;99.90
31729;DHT22;18309;43.658;1.312;2023-04-25T05:22:08;15.10;99.90
31729;DHT22;18309;43.658;1.312;2023-04-25T05:24:34;14.70;99.90
31729;DHT22;18309;43.658;1.312;2023-04-25T05:27:00;14.40;99.90
31729;DHT22;18309;43.658;1.312;2023-04-25T05:29:25;14.30;99.90
31729;DHT22;18309;43.658;1.312;2023-04-25T05:31:51;14.20;99.90
31729;DHT22;18309;43.658;1.312;2023-04-25T05:34:16;14.20;99.90
31729;DHT22;18309;43.658;1.312;2023-04-25T05:36:42;14.10;99.90
31729;DHT22;18309;43.658;1.312;2023-04-25T05:39:08;14.10;99.90
31729;DHT22;18309;43.658;1.312;2023-04-25T05:41:34;14.10;99.90
31729;DHT22;18309;43.658;1.312;2023-04-25T05:44:00;14.20;99.90
31729;DHT22;18309;43.658;1.312;2023-04-25T05:46:25;14.20;99.90
31729;DHT22;18309;43.658;1.312;2023-04-25T05:48:51;14.30;99.90
31729;DHT22;18309;43.658;1.312;2023-04-25T05:51:17;14.30;99.90
31729;DHT22;18309;43.658;1.312;2023-04-25T05:53:43;14.30;99.90
31729;DHT22;18309;43.658;1.312;2023-04-25T05:56:09;14.30;99.90
31729;DHT22;18309;43.658;1.312;2023-04-25T05:58:35;14.20;99.90
31729;DHT22;18309;43.658;1.312;2023-04-25T06:01:01;14.20;99.90
31729;DHT22;18309;43.658;1.312;2023-04-25T06:03:29;14.20;99.90
31729;DHT22;18309;43.658;1.312;2023-04-25T06:05:55;14.20;99.90
31729;DHT22;18309;43.658;1.312;2023-04-25T06:08:21;14.20;99.90
31729;DHT22;18309;43.658;1.312;2023-04-25T06:10:46;14.20;99.90
31729;DHT22;18309;43.658;1.312;2023-04-25T06:13:12;14.20;99.90
31729;DHT22;18309;43.658;1.312;2023-04-25T06:15:38;14.20;99.90
31729;DHT22;18309;43.658;1.312;2023-04-25T06:18:03;14.20;99.90
31729;DHT22;18309;43.658;1.312;2023-04-25T06:20:29;14.30;99.90
31729;DHT22;18309;43.658;1.312;2023-04-25T06:22:55;14.40;99.90
31729;DHT22;18309;43.658;1.312;2023-04-25T06:25:21;14.50;99.90
31729;DHT22;18309;43.658;1.312;2023-04-25T06:27:47;14.60;99.90
31729;DHT22;18309;43.658;1.312;2023-04-25T06:30:13;14.70;99.90
31729;DHT22;18309;43.658;1.312;2023-04-25T06:32:39;14.80;99.90
31729;DHT22;18309;43.658;1.312;2023-04-25T06:35:06;14.80;99.90
31729;DHT22;18309;43.658;1.312;2023-04-25T06:37:32;14.80;99.90
31729;DHT22;18309;43.658;1.312;2023-04-25T06:39:57;14.90;99.90
31729;DHT22;18309;43.658;1.312;2023-04-25T06:42:23;14.90;99.90
31729;DHT22;18309;43.658;1.312;2023-04-25T06:44:49;14.90;99.90
31729;DHT22;18309;43.658;1.312;2023-04-25T06:47:14;15.00;99.90
31729;DHT22;18309;43.658;1.312;2023-04-25T06:49:40;15.00;99.90
31729;DHT22;18309;43.658;1.312;2023-04-25T06:52:07;15.00;99.90
31729;DHT22;18309;43.658;1.312;2023-04-25T06:54:33;15.00;99.90
31729;DHT22;18309;43.658;1.312;2023-04-25T06:56:58;14.90;99.90
31729;DHT22;18309;43.658;1.312;2023-04-25T06:59:26;14.90;99.90
31729;DHT22;18309;43.658;1.312;2023-04-25T07:01:52;14.80;99.90
31729;DHT22;18309;43.658;1.312;2023-04-25T07:04:17;14.60;99.90
31729;DHT22;18309;43.658;1.312;2023-04-25T07:06:43;14.50;99.90
31729;DHT22;18309;43.658;1.312;2023-04-25T07:09:10;14.10;99.90
31729;DHT22;18309;43.658;1.312;2023-04-25T07:11:36;13.90;99.90
31729;DHT22;18309;43.658;1.312;2023-04-25T07:14:04;13.80;99.90
31729;DHT22;18309;43.658;1.312;2023-04-25T07:16:29;13.80;99.90
31729;DHT22;18309;43.658;1.312;2023-04-25T07:18:55;13.70;99.90
31729;DHT22;18309;43.658;1.312;2023-04-25T07:21:21;13.70;99.90
31729;DHT22;18309;43.658;1.312;2023-04-25T07:23:47;13.70;99.90
31729;DHT22;18309;43.658;1.312;2023-04-25T07:26:13;13.60;99.90
31729;DHT22;18309;43.658;1.312;2023-04-25T07:28:38;13.50;99.90
31729;DHT22;18309;43.658;1.312;2023-04-25T07:31:04;13.50;99.90
31729;DHT22;18309;43.658;1.312;2023-04-25T07:33:30;13.60;99.90
31729;DHT22;18309;43.658;1.312;2023-04-25T07:35:56;13.60;99.90
31729;DHT22;18309;43.658;1.312;2023-04-25T07:38:22;13.70;99.90
31729;DHT22;18309;43.658;1.312;2023-04-25T07:40:48;13.80;99.90
31729;DHT22;18309;43.658;1.312;2023-04-25T07:43:14;13.90;99.90
31729;DHT22;18309;43.658;1.312;2023-04-25T07:45:46;13.80;99.90
31729;DHT22;18309;43.658;1.312;2023-04-25T07:48:16;13.70;99.90
31729;DHT22;18309;43.658;1.312;2023-04-25T07:50:43;13.70;99.90
31729;DHT22;18309;43.658;1.312;2023-04-25T07:53:08;13.70;99.90
31729;DHT22;18309;43.658;1.312;2023-04-25T07:55:34;13.50;99.90
31729;DHT22;18309;43.658;1.312;2023-04-25T07:58:01;13.40;99.90
31729;DHT22;18309;43.658;1.312;2023-04-25T08:00:28;13.50;99.90
31729;DHT22;18309;43.658;1.312;2023-04-25T08:02:54;13.50;99.90
31729;DHT22;18309;43.658;1.312;2023-04-25T08:05:20;13.50;99.90
31729;DHT22;18309;43.658;1.312;2023-04-25T08:07:45;13.50;99.90
31729;DHT22;18309;43.658;1.312;2023-04-25T08:10:11;13.60;99.90
31729;DHT22;18309;43.658;1.312;2023-04-25T08:12:37;13.80;99.90
31729;DHT22;18309;43.658;1.312;2023-04-25T08:15:03;13.90;99.90
31729;DHT22;18309;43.658;1.312;2023-04-25T08:17:29;13.90;99.90
31729;DHT22;18309;43.658;1.312;2023-04-25T08:19:55;14.00;99.90
31729;DHT22;18309;43.658;1.312;2023-04-25T08:22:22;14.00;99.90
31729;DHT22;18309;43.658;1.312;2023-04-25T08:24:48;14.00;99.90
31729;DHT22;18309;43.658;1.312;2023-04-25T08:27:13;14.10;99.90
31729;DHT22;18309;43.658;1.312;2023-04-25T08:29:40;14.30;99.90
31729;DHT22;18309;43.658;1.312;2023-04-25T08:32:06;14.40;99.90
31729;DHT22;18309;43.658;1.312;2023-04-25T08:34:32;14.20;99.90
31729;DHT22;18309;43.658;1.312;2023-04-25T08:36:57;14.00;99.90
31729;DHT22;18309;43.658;1.312;2023-04-25T08:39:23;13.90;99.90
31729;DHT22;18309;43.658;1.312;2023-04-25T08:41:49;14.00;99.90
31729;DHT22;18309;43.658;1.312;2023-04-25T08:44:16;14.20;99.90
31729;DHT22;18309;43.658;1.312;2023-04-25T08:46:42;14.50;99.90
31729;DHT22;18309;43.658;1.312;2023-04-25T08:49:13;14.70;99.90
31729;DHT22;18309;43.658;1.312;2023-04-25T08:51:45;14.80;99.90
31729;DHT22;18309;43.658;1.312;2023-04-25T08:54:13;14.60;99.90
31729;DHT22;18309;43.658;1.312;2023-04-25T08:56:41;14.60;99.90
31729;DHT22;18309;43.658;1.312;2023-04-25T08:59:09;14.70;99.90
31729;DHT22;18309;43.658;1.312;2023-04-25T09:01:35;14.90;99.90
31729;DHT22;18309;43.658;1.312;2023-04-25T09:04:01;14.90;99.90
31729;DHT22;18309;43.658;1.312;2023-04-25T09:06:29;14.90;99.90
31729;DHT22;18309;43.658;1.312;2023-04-25T09:09:02;14.80;99.90
31729;DHT22;18309;43.658;1.312;2023-04-25T09:11:31;14.80;99.90
31729;DHT22;18309;43.658;1.312;2023-04-25T09:14:36;14.90;99.90
31729;DHT22;18309;43.658;1.312;2023-04-25T09:17:03;15.10;99.90
31729;DHT22;18309;43.658;1.312;2023-04-25T09:19:32;15.30;99.90
31729;DHT22;18309;43.658;1.312;2023-04-25T09:22:00;15.00;99.90
31729;DHT22;18309;43.658;1.312;2023-04-25T09:24:42;15.10;99.90
31729;DHT22;18309;43.658;1.312;2023-04-25T09:27:11;15.10;99.90
31729;DHT22;18309;43.658;1.312;2023-04-25T09:29:38;14.90;99.90
31729;DHT22;18309;43.658;1.312;2023-04-25T09:34:42;14.70;99.90
31729;DHT22;18309;43.658;1.312;2023-04-25T09:37:09;14.60;99.90
31729;DHT22;18309;43.658;1.312;2023-04-25T09:39:37;14.60;99.90
31729;DHT22;18309;43.658;1.312;2023-04-25T09:42:04;14.60;99.90
31729;DHT22;18309;43.658;1.312;2023-04-25T09:44:30;14.80;99.90
31729;DHT22;18309;43.658;1.312;2023-04-25T09:46:56;14.90;99.90
31729;DHT22;18309;43.658;1.312;2023-04-25T09:49:22;14.70;99.90
31729;DHT22;18309;43.658;1.312;2023-04-25T09:51:58;14.70;99.90
31729;DHT22;18309;43.658;1.312;2023-04-25T09:54:25;14.60;99.90
31729;DHT22;18309;43.658;1.312;2023-04-25T09:56:52;14.80;99.90
31729;DHT22;18309;43.658;1.312;2023-04-25T09:59:22;14.70;99.90
31729;DHT22;18309;43.658;1.312;2023-04-25T10:01:49;14.70;99.90
31729;DHT22;18309;43.658;1.312;2023-04-25T10:04:20;14.70;99.90
31729;DHT22;18309;43.658;1.312;2023-04-25T10:06:49;14.70;99.90
31729;DHT22;18309;43.658;1.312;2023-04-25T10:09:16;14.70;99.90
31729;DHT22;18309;43.658;1.312;2023-04-25T10:11:44;14.80;99.90
31729;DHT22;18309;43.658;1.312;2023-04-25T10:14:10;15.20;99.90
31729;DHT22;18309;43.658;1.312;2023-04-25T10:16:38;15.90;99.90
31729;DHT22;18309;43.658;1.312;2023-04-25T10:19:06;16.40;99.90
31729;DHT22;18309;43.658;1.312;2023-04-25T10:21:32;17.00;99.90
31729;DHT22;18309;43.658;1.312;2023-04-25T10:23:59;17.10;99.90
31729;DHT22;18309;43.658;1.312;2023-04-25T10:26:25;17.20;99.90
31729;DHT22;18309;43.658;1.312;2023-04-25T10:28:59;17.10;99.90
31729;DHT22;18309;43.658;1.312;2023-04-25T10:31:25;16.90;99.90
31729;DHT22;18309;43.658;1.312;2023-04-25T10:33:51;16.60;99.90
31729;DHT22;18309;43.658;1.312;2023-04-25T10:36:21;16.30;99.90
31729;DHT22;18309;43.658;1.312;2023-04-25T10:38:48;16.20;99.90
31729;DHT22;18309;43.658;1.312;2023-04-25T10:41:19;16.00;99.90
31729;DHT22;18309;43.658;1.312;2023-04-25T10:43:46;15.70;99.90
31729;DHT22;18309;43.658;1.312;2023-04-25T10:46:22;15.70;99.90
31729;DHT22;18309;43.658;1.312;2023-04-25T10:48:55;15.90;99.90
31729;DHT22;18309;43.658;1.312;2023-04-25T10:51:39;16.10;99.90
31729;DHT22;18309;43.658;1.312;2023-04-25T10:54:08;16.40;99.90
31729;DHT22;18309;43.658;1.312;2023-04-25T10:56:41;16.70;99.90
31729;DHT22;18309;43.658;1.312;2023-04-25T10:59:15;16.90;99.90
31729;DHT22;18309;43.658;1.312;2023-04-25T11:01:43;16.90;99.90
31729;DHT22;18309;43.658;1.312;2023-04-25T11:04:33;16.40;99.90
31729;DHT22;18309;43.658;1.312;2023-04-25T11:09:45;16.40;99.90
31729;DHT22;18309;43.658;1.312;2023-04-25T11:12:11;16.80;99.90
31729;DHT22;18309;43.658;1.312;2023-04-25T11:14:40;17.30;99.90
31729;DHT22;18309;43.658;1.312;2023-04-25T11:17:06;17.60;99.90
31729;DHT22;18309;43.658;1.312;2023-04-25T11:19:32;17.50;99.90
31729;DHT22;18309;43.658;1.312;2023-04-25T11:21:59;17.60;99.90
31729;DHT22;18309;43.658;1.312;2023-04-25T11:24:35;18.00;99.90
31729;DHT22;18309;43.658;1.312;2023-04-25T11:27:02;18.50;99.90
31729;DHT22;18309;43.658;1.312;2023-04-25T11:29:30;18.60;99.90
31729;DHT22;18309;43.658;1.312;2023-04-25T11:31:56;18.40;99.90
31729;DHT22;18309;43.658;1.312;2023-04-25T11:34:23;18.50;99.90
31729;DHT22;18309;43.658;1.312;2023-04-25T11:36:51;18.40;99.90
31729;DHT22;18309;43.658;1.312;2023-04-25T11:39:18;18.00;99.90
31729;DHT22;18309;43.658;1.312;2023-04-25T11:41:44;18.00;99.90
31729;DHT22;18309;43.658;1.312;2023-04-25T11:44:10;18.10;99.90
31729;DHT22;18309;43.658;1.312;2023-04-25T11:46:36;18.20;99.90
31729;DHT22;18309;43.658;1.312;2023-04-25T11:49:02;18.10;99.90
31729;DHT22;18309;43.658;1.312;2023-04-25T11:51:28;18.10;99.90
31729;DHT22;18309;43.658;1.312;2023-04-25T11:53:53;18.20;99.90
31729;DHT22;18309;43.658;1.312;2023-04-25T11:56:20;17.70;99.90
31729;DHT22;18309;43.658;1.312;2023-04-25T11:59:01;17.30;99.90
31729;DHT22;18309;43.658;1.312;2023-04-25T12:01:30;17.40;99.90
31729;DHT22;18309;43.658;1.312;2023-04-25T12:03:57;17.70;99.90
31729;DHT22;18309;43.658;1.312;2023-04-25T12:06:29;17.30;99.90
31729;DHT22;18309;43.658;1.312;2023-04-25T12:09:06;17.70;99.90
31729;DHT22;18309;43.658;1.312;2023-04-25T12:11:32;18.00;99.90
31729;DHT22;18309;43.658;1.312;2023-04-25T12:14:04;18.30;99.90
31729;DHT22;18309;43.658;1.312;2023-04-25T12:16:43;18.50;99.90
31729;DHT22;18309;43.658;1.312;2023-04-25T12:19:09;18.40;99.90
31729;DHT22;18309;43.658;1.312;2023-04-25T12:21:35;18.00;99.90
31729;DHT22;18309;43.658;1.312;2023-04-25T12:24:12;17.80;99.90
31729;DHT22;18309;43.658;1.312;2023-04-25T12:29:22;18.00;99.90
31729;DHT22;18309;43.658;1.312;2023-04-25T12:31:50;18.30;99.90
31729;DHT22;18309;43.658;1.312;2023-04-25T12:34:19;18.20;99.40
31729;DHT22;18309;43.658;1.312;2023-04-25T12:36:45;17.90;99.90
31729;DHT22;18309;43.658;1.312;2023-04-25T12:39:18;17.60;99.90
31729;DHT22;18309;43.658;1.312;2023-04-25T12:41:48;17.60;99.90
31729;DHT22;18309;43.658;1.312;2023-04-25T12:44:13;17.40;99.90
31729;DHT22;18309;43.658;1.312;2023-04-25T12:46:40;17.40;99.90
31729;DHT22;18309;43.658;1.312;2023-04-25T12:49:06;17.50;99.90
31729;DHT22;18309;43.658;1.312;2023-04-25T12:51:34;17.50;99.90
31729;DHT22;18309;43.658;1.312;2023-04-25T12:54:22;17.80;99.90
31729;DHT22;18309;43.658;1.312;2023-04-25T12:56:47;17.90;99.90
31729;DHT22;18309;43.658;1.312;2023-04-25T12:59:13;18.30;99.90
31729;DHT22;18309;43.658;1.312;2023-04-25T13:01:39;18.00;99.90
31729;DHT22;18309;43.658;1.312;2023-04-25T13:04:05;17.80;99.90
31729;DHT22;18309;43.658;1.312;2023-04-25T13:06:30;17.90;99.90
31729;DHT22;18309;43.658;1.312;2023-04-25T13:08:56;17.80;99.90
31729;DHT22;18309;43.658;1.312;2023-04-25T13:11:22;17.60;99.90
31729;DHT22;18309;43.658;1.312;2023-04-25T13:13:48;17.90;99.90
31729;DHT22;18309;43.658;1.312;2023-04-25T13:16:13;17.80;99.90
31729;DHT22;18309;43.658;1.312;2023-04-25T13:18:40;17.50;99.90
31729;DHT22;18309;43.658;1.312;2023-04-25T13:21:05;17.30;99.90
31729;DHT22;18309;43.658;1.312;2023-04-25T13:23:31;17.20;99.90
31729;DHT22;18309;43.658;1.312;2023-04-25T13:25:57;17.30;99.90
31729;DHT22;18309;43.658;1.312;2023-04-25T13:28:24;17.60;99.90
31729;DHT22;18309;43.658;1.312;2023-04-25T13:30:50;17.70;99.90
31729;DHT22;18309;43.658;1.312;2023-04-25T13:33:17;18.10;99.90
31729;DHT22;18309;43.658;1.312;2023-04-25T13:35:43;18.30;99.90
31729;DHT22;18309;43.658;1.312;2023-04-25T13:38:08;18.20;99.90
31729;DHT22;18309;43.658;1.312;2023-04-25T13:40:34;18.30;99.90
31729;DHT22;18309;43.658;1.312;2023-04-25T13:43:01;18.50;99.90
31729;DHT22;18309;43.658;1.312;2023-04-25T13:45:26;18.60;99.90
31729;DHT22;18309;43.658;1.312;2023-04-25T13:47:52;18.60;99.90
31729;DHT22;18309;43.658;1.312;2023-04-25T13:50:18;18.40;99.90
31729;DHT22;18309;43.658;1.312;2023-04-25T13:52:44;18.20;99.90
31729;DHT22;18309;43.658;1.312;2023-04-25T13:55:10;18.30;99.90
31729;DHT22;18309;43.658;1.312;2023-04-25T13:57:36;18.10;99.90
31729;DHT22;18309;43.658;1.312;2023-04-25T14:00:03;18.00;99.90
31729;DHT22;18309;43.658;1.312;2023-04-25T14:02:36;18.20;99.90
31729;DHT22;18309;43.658;1.312;2023-04-25T14:05:04;18.50;99.90
31729;DHT22;18309;43.658;1.312;2023-04-25T14:07:30;18.40;99.90
31729;DHT22;18309;43.658;1.312;2023-04-25T14:09:56;18.10;99.90
31729;DHT22;18309;43.658;1.312;2023-04-25T14:12:25;17.80;99.90
31729;DHT22;18309;43.658;1.312;2023-04-25T14:14:51;17.90;99.90
31729;DHT22;18309;43.658;1.312;2023-04-25T14:17:18;17.90;99.90
31729;DHT22;18309;43.658;1.312;2023-04-25T14:19:44;18.00;99.90
31729;DHT22;18309;43.658;1.312;2023-04-25T14:22:13;18.10;99.90
31729;DHT22;18309;43.658;1.312;2023-04-25T14:24:39;18.10;99.90
31729;DHT22;18309;43.658;1.312;2023-04-25T14:27:04;18.10;99.90
31729;DHT22;18309;43.658;1.312;2023-04-25T14:29:31;17.90;99.90
31729;DHT22;18309;43.658;1.312;2023-04-25T14:31:57;17.40;99.90
31729;DHT22;18309;43.658;1.312;2023-04-25T14:34:24;17.40;99.90
31729;DHT22;18309;43.658;1.312;2023-04-25T14:36:51;17.50;99.90
31729;DHT22;18309;43.658;1.312;2023-04-25T14:39:17;17.70;99.90
31729;DHT22;18309;43.658;1.312;2023-04-25T14:41:43;17.70;99.90
31729;DHT22;18309;43.658;1.312;2023-04-25T14:44:09;18.00;99.90
31729;DHT22;18309;43.658;1.312;2023-04-25T14:46:36;18.10;99.90
31729;DHT22;18309;43.658;1.312;2023-04-25T14:49:02;17.50;99.90
31729;DHT22;18309;43.658;1.312;2023-04-25T14:51:28;17.20;99.90
31729;DHT22;18309;43.658;1.312;2023-04-25T14:53:54;17.00;99.90
31729;DHT22;18309;43.658;1.312;2023-04-25T14:56:19;16.90;99.90
31729;DHT22;18309;43.658;1.312;2023-04-25T14:58:45;16.70;99.90
31729;DHT22;18309;43.658;1.312;2023-04-25T15:01:11;16.50;99.90
31729;DHT22;18309;43.658;1.312;2023-04-25T15:03:39;16.30;99.90
31729;DHT22;18309;43.658;1.312;2023-04-25T15:06:05;16.30;99.90
31729;DHT22;18309;43.658;1.312;2023-04-25T15:08:31;16.60;99.90
31729;DHT22;18309;43.658;1.312;2023-04-25T15:10:58;16.80;99.90
31729;DHT22;18309;43.658;1.312;2023-04-25T15:13:25;17.10;99.90
31729;DHT22;18309;43.658;1.312;2023-04-25T15:15:51;17.30;99.90
31729;DHT22;18309;43.658;1.312;2023-04-25T15:18:20;17.10;99.90
31729;DHT22;18309;43.658;1.312;2023-04-25T15:20:48;17.00;99.90
31729;DHT22;18309;43.658;1.312;2023-04-25T15:23:13;17.00;99.90
31729;DHT22;18309;43.658;1.312;2023-04-25T15:25:39;16.90;99.90
31729;DHT22;18309;43.658;1.312;2023-04-25T15:28:05;16.90;99.90
31729;DHT22;18309;43.658;1.312;2023-04-25T15:30:30;16.90;99.90
31729;DHT22;18309;43.658;1.312;2023-04-25T15:32:56;16.70;99.90
31729;DHT22;18309;43.658;1.312;2023-04-25T15:35:22;16.20;99.90